Time;durP1;ratioP1;P1;durP2;ratioP2;P2;SDS_P1;SDS_P2;PMS_P1;PMS_P2;Temp;Humidity;BMP_temperature;BMP_pressure;BME280_temperature;BME280_humidity;BME280_pressure;Samples;Min_cycle;Max_cycle;Signal;HPM_P1;HPM_P2
2022/06/23 00:01:26;;;;;;;48.17;35.40;;;18.40;99.90;;;;;;5036678;28;20444;-88
2022/06/23 00:03:54;;;;;;;45.30;32.63;;;18.30;99.90;;;;;;5035944;28;21040;-88
2022/06/23 00:06:47;;;;;;;52.83;34.10;;;18.40;99.90;;;;;;5036558;28;20441;-89
2022/06/23 00:09:38;;;;;;;63.33;36.80;;;18.40;99.90;;;;;;5035407;28;20436;-89
2022/06/23 00:12:19;;;;;;;58.23;35.90;;;18.30;99.90;;;;;;5034719;28;20513;-89
2022/06/23 00:14:51;;;;;;;58.97;36.80;;;18.30;99.90;;;;;;5030267;28;20460;-89
2022/06/23 00:17:34;;;;;;;56.23;37.37;;;18.20;99.90;;;;;;5050137;28;20432;-89
2022/06/23 00:20:15;;;;;;;52.07;36.90;;;18.30;99.90;;;;;;5035458;28;20572;-89
2022/06/23 00:22:45;;;;;;;69.00;41.33;;;18.30;99.90;;;;;;5035242;28;20976;-89
2022/06/23 00:25:44;;;;;;;78.37;42.93;;;18.30;99.90;;;;;;5037032;28;20424;-88
2022/06/23 00:28:18;;;;;;;62.47;37.33;;;18.30;99.90;;;;;;5039617;28;20455;-88
2022/06/23 00:30:48;;;;;;;77.80;40.90;;;18.30;99.90;;;;;;5039309;28;20544;-89
2022/06/23 00:33:21;;;;;;;74.67;42.87;;;18.30;99.90;;;;;;5035949;28;20463;-89
2022/06/23 00:35:49;;;;;;;91.73;42.53;;;18.40;99.90;;;;;;5035247;28;20433;-89
2022/06/23 00:38:26;;;;;;;106.37;46.43;;;18.40;99.90;;;;;;5034881;28;20484;-89
2022/06/23 00:40:54;;;;;;;296.43;55.73;;;18.40;99.90;;;;;;5033797;28;20444;-89
2022/06/23 00:43:21;;;;;;;460.60;64.30;;;18.40;99.90;;;;;;5037409;28;20490;-89
2022/06/23 00:45:59;;;;;;;748.67;95.70;;;18.50;99.90;;;;;;5034870;28;20443;-89
2022/06/23 00:48:54;;;;;;;287.50;52.40;;;18.40;99.90;;;;;;5034888;28;20483;-89
2022/06/23 00:51:31;;;;;;;613.03;73.50;;;18.40;99.90;;;;;;5050597;28;20466;-89
2022/06/23 00:54:19;;;;;;;353.73;55.70;;;18.40;99.90;;;;;;5047658;28;20456;-89
2022/06/23 00:56:54;;;;;;;203.93;45.57;;;18.30;99.90;;;;;;5032879;28;20566;-89
2022/06/23 00:59:20;;;;;;;214.67;49.87;;;;;;;;;;5035678;28;20464;-89
2022/06/23 01:01:46;;;;;;;234.57;52.60;;;;;;;;;;5028474;28;20425;-89
2022/06/23 01:04:40;;;;;;;124.07;42.37;;;18.30;99.90;;;;;;5026831;28;21425;-90
2022/06/23 01:07:40;;;;;;;56.80;33.13;;;18.10;99.90;;;;;;5027688;28;20491;-87
2022/06/23 01:10:21;;;;;;;56.10;32.00;;;17.80;99.90;;;;;;5050706;28;21046;-88
2022/06/23 01:12:55;;;;;;;51.40;33.80;;;17.90;99.90;;;;;;5031878;28;20531;-89
2022/06/23 01:15:21;;;;;;;340.73;46.43;;;;;;;;;;5034825;28;20432;-88
2022/06/23 01:17:56;;;;;;;59.87;35.67;;;17.80;99.90;;;;;;5034058;28;20563;-88
2022/06/23 01:20:22;;;;;;;52.57;34.30;;;;;;;;;;5035224;28;20456;-87
2022/06/23 01:22:51;;;;;;;54.87;31.83;;;17.70;99.90;;;;;;5034879;28;20482;-89
2022/06/23 01:25:54;;;;;;;57.27;33.47;;;17.80;99.90;;;;;;5037729;28;20432;-88
2022/06/23 01:28:23;;;;;;;51.23;31.60;;;17.80;99.90;;;;;;5039124;28;20433;-90
2022/06/23 01:30:59;;;;;;;611.23;72.97;;;17.70;99.90;;;;;;5039875;28;20456;-90
2022/06/23 01:33:33;;;;;;;335.03;54.80;;;17.70;99.90;;;;;;5037639;28;20482;-90
2022/06/23 01:36:09;;;;;;;356.90;58.37;;;17.60;99.90;;;;;;5036391;28;20489;-89
2022/06/23 01:38:44;;;;;;;547.63;84.73;;;17.70;99.90;;;;;;5036692;28;20490;-90
2022/06/23 01:41:27;;;;;;;155.83;40.17;;;17.40;99.90;;;;;;5039986;28;20493;-89
2022/06/23 01:43:59;;;;;;;254.00;48.70;;;17.60;99.90;;;;;;5041466;28;20898;-89
2022/06/23 01:46:53;;;;;;;272.50;46.03;;;17.60;99.90;;;;;;5037272;28;20436;-88
2022/06/23 01:49:30;;;;;;;52.93;31.60;;;17.70;99.90;;;;;;5037774;28;20471;-88
2022/06/23 01:52:07;;;;;;;53.20;32.80;;;17.50;99.90;;;;;;5057047;28;20439;-88
2022/06/23 01:54:35;;;;;;;48.27;28.50;;;17.40;99.90;;;;;;5053607;28;20464;-88
2022/06/23 01:57:11;;;;;;;41.57;26.27;;;17.40;99.90;;;;;;5035441;28;20440;-89
2022/06/23 02:00:03;;;;;;;51.60;26.50;;;17.40;99.90;;;;;;5050803;28;20461;-88
2022/06/23 02:02:48;;;;;;;39.50;25.10;;;17.20;99.90;;;;;;5037472;28;20806;-90
2022/06/23 02:05:29;;;;;;;39.23;22.90;;;17.20;99.90;;;;;;5035669;28;20436;-90
2022/06/23 02:08:16;;;;;;;46.13;21.70;;;17.10;99.90;;;;;;5035844;28;20428;-90
2022/06/23 02:10:56;;;;;;;44.30;22.60;;;17.00;99.90;;;;;;5034360;28;20487;-90
2022/06/23 02:13:32;;;;;;;39.60;23.10;;;17.00;99.90;;;;;;5035879;28;20464;-91
2022/06/23 02:16:04;;;;;;;43.73;21.37;;;17.00;99.90;;;;;;5036673;28;20440;-92
2022/06/23 02:18:58;;;;;;;47.23;21.07;;;17.10;99.90;;;;;;5039997;28;20478;-91
2022/06/23 02:21:39;;;;;;;40.40;20.13;;;17.20;99.90;;;;;;5037206;28;20530;-92
2022/06/23 02:24:16;;;;;;;91.77;26.70;;;17.20;99.90;;;;;;5044007;28;20448;-90
2022/06/23 02:27:07;;;;;;;224.63;44.00;;;17.30;99.90;;;;;;5033466;28;20513;-90
2022/06/23 02:29:59;;;;;;;424.37;56.40;;;17.20;99.90;;;;;;5033200;28;20582;-90
2022/06/23 02:32:25;;;;;;;182.13;38.57;;;;;;;;;;5037435;28;20447;-90
2022/06/23 02:35:14;;;;;;;288.53;43.77;;;17.40;99.90;;;;;;5038783;28;20855;-90
2022/06/23 02:37:59;;;;;;;154.50;30.90;;;17.70;99.90;;;;;;5041021;28;20432;-90
2022/06/23 02:40:31;;;;;;;229.40;40.37;;;17.50;99.90;;;;;;5037284;28;20499;-90
2022/06/23 02:43:10;;;;;;;392.23;46.43;;;17.60;99.90;;;;;;5040453;28;20984;-90
2022/06/23 02:45:41;;;;;;;166.87;36.20;;;17.70;99.90;;;;;;5057248;28;20436;-90
2022/06/23 02:48:25;;;;;;;257.97;43.07;;;17.70;99.90;;;;;;5037929;28;20940;-91
2022/06/23 02:51:17;;;;;;;236.73;42.47;;;17.90;99.90;;;;;;5033770;28;20512;-90
2022/06/23 02:53:58;;;;;;;471.20;61.63;;;17.70;99.90;;;;;;5035508;28;20798;-91
2022/06/23 02:57:19;;;;;;;268.57;55.73;;;17.70;99.90;;;;;;5043149;28;20440;-90
2022/06/23 03:00:26;;;;;;;232.27;44.10;;;17.60;99.90;;;;;;5020463;28;20548;-90
2022/06/23 03:03:34;;;;;;;337.20;48.93;;;17.50;99.90;;;;;;5042745;28;20444;-91
2022/06/23 03:06:22;;;;;;;282.60;50.07;;;17.50;99.90;;;;;;5036946;28;20445;-90
2022/06/23 03:08:54;;;;;;;346.83;47.00;;;17.50;99.90;;;;;;5024853;28;20452;-90
2022/06/23 03:12:03;;;;;;;141.20;37.70;;;17.50;99.90;;;;;;5038990;28;20455;-90
2022/06/23 03:15:01;;;;;;;236.07;45.57;;;17.40;99.90;;;;;;4980574;28;21044;-89
2022/06/23 03:17:29;;;;;;;143.60;36.20;;;17.50;99.90;;;;;;4995054;28;20485;-89
2022/06/23 03:20:18;;;;;;;167.43;43.50;;;17.20;99.90;;;;;;5036788;28;20612;-89
2022/06/23 03:23:12;;;;;;;146.17;38.20;;;17.20;99.90;;;;;;5035725;28;20858;-89
2022/06/23 03:25:50;;;;;;;87.97;35.47;;;17.00;99.90;;;;;;5038400;28;20420;-89
2022/06/23 03:28:25;;;;;;;52.50;31.03;;;17.00;99.90;;;;;;5035929;28;20428;-89
2022/06/23 03:31:03;;;;;;;75.77;33.07;;;16.90;99.90;;;;;;5036030;28;20452;-90
2022/06/23 03:33:37;;;;;;;49.80;29.80;;;16.80;99.90;;;;;;5035764;28;20516;-91
2022/06/23 03:36:16;;;;;;;54.37;31.20;;;16.70;99.90;;;;;;5047460;23;20874;-82
2022/06/23 03:41:48;;;;;;;28.47;17.90;;;16.70;99.90;;;;;;5040957;28;20499;-86
2022/06/23 03:44:42;;;;;;;28.43;14.67;;;16.90;99.90;;;;;;5048845;28;21824;-86
2022/06/23 03:47:35;;;;;;;34.23;14.80;;;16.80;99.90;;;;;;5031736;28;20483;-84
2022/06/23 03:50:22;;;;;;;34.73;20.77;;;17.10;99.90;;;;;;5047103;28;20440;-85
2022/06/23 03:52:54;;;;;;;25.87;13.87;;;17.30;99.90;;;;;;5028726;28;20437;-86
2022/06/23 03:55:29;;;;;;;33.40;17.23;;;17.40;99.90;;;;;;5024997;28;20436;-85
2022/06/23 03:58:17;;;;;;;79.50;27.10;;;17.60;99.90;;;;;;5025546;28;21057;-84
2022/06/23 04:00:55;;;;;;;56.20;23.37;;;17.90;99.90;;;;;;5018448;28;20478;-81
2022/06/23 04:03:33;;;;;;;45.93;21.50;;;17.70;99.90;;;;;;5026788;28;20442;-83
2022/06/23 04:06:29;;;;;;;75.70;27.30;;;18.00;99.90;;;;;;5018593;28;20459;-83
2022/06/23 04:09:01;;;;;;;217.17;40.57;;;18.00;99.90;;;;;;5041277;28;20436;-82
2022/06/23 04:11:45;;;;;;;144.13;33.50;;;18.00;99.90;;;;;;5016273;28;20444;-81
2022/06/23 04:14:21;;;;;;;128.03;33.93;;;18.10;99.90;;;;;;5024879;28;20510;-84
2022/06/23 04:16:52;;;;;;;99.00;28.40;;;18.30;99.90;;;;;;5025206;28;20522;-83
2022/06/23 04:19:28;;;;;;;117.77;29.07;;;18.20;99.90;;;;;;5023436;28;20480;-83
2022/06/23 04:22:13;;;;;;;118.73;30.10;;;18.20;99.90;;;;;;5020212;28;20956;-87
2022/06/23 04:24:43;;;;;;;332.73;42.03;;;18.30;99.90;;;;;;5021911;28;20482;-85
2022/06/23 04:27:18;;;;;;;204.20;40.70;;;18.50;99.90;;;;;;5014970;28;20483;-80
2022/06/23 04:29:44;;;;;;;75.43;24.10;;;;;;;;;;5019328;28;20447;-84
2022/06/23 04:32:18;;;;;;;36.90;21.53;;;19.70;99.90;;;;;;5021573;28;20436;-79
2022/06/23 04:34:52;;;;;;;19.03;15.50;;;20.80;99.90;;;;;;5023654;28;20443;-83
2022/06/23 04:38:01;;;;;;;14.23;11.00;;;22.90;99.90;;;;;;5007898;28;20472;-84
2022/06/23 04:40:34;;;;;;;16.23;7.87;;;25.50;99.90;;;;;;5034002;28;21031;-82
2022/06/23 04:43:12;;;;;;;35.83;13.30;;;26.90;99.90;;;;;;5018436;28;20440;-81
2022/06/23 04:45:38;;;;;;;44.83;13.00;;;;;;;;;;5007545;28;20958;-80
2022/06/23 04:48:13;;;;;;;35.00;13.53;;;25.30;99.90;;;;;;5015472;28;20920;-80
2022/06/23 04:51:05;;;;;;;66.27;16.63;;;24.90;99.90;;;;;;5000460;28;20459;-81
2022/06/23 04:54:13;;;;;;;73.73;15.20;;;24.70;99.90;;;;;;5008448;28;20575;-80
2022/06/23 04:56:51;;;;;;;46.63;15.87;;;24.90;99.90;;;;;;5006653;28;20459;-81
2022/06/23 04:59:34;;;;;;;116.37;21.37;;;24.20;99.90;;;;;;5023293;28;20464;-82
2022/06/23 05:02:20;;;;;;;109.00;18.20;;;24.30;99.90;;;;;;5023942;28;20441;-81
2022/06/23 05:04:52;;;;;;;45.97;16.60;;;25.00;99.90;;;;;;5025457;28;20463;-86
2022/06/23 05:07:32;;;;;;;34.03;15.10;;;25.80;99.90;;;;;;5019559;28;20803;-81
2022/06/23 05:10:06;;;;;;;61.13;15.47;;;26.70;99.90;;;;;;5024971;28;20967;-83
2022/06/23 05:12:39;;;;;;;52.07;15.27;;;27.60;99.90;;;;;;5027287;28;20441;-85
2022/06/23 05:15:10;;;;;;;68.63;17.43;;;28.70;99.90;;;;;;5024578;28;20440;-82
2022/06/23 05:17:42;;;;;;;34.70;18.07;;;29.50;99.90;;;;;;5023354;28;20570;-81
2022/06/23 05:20:30;;;;;;;39.43;16.63;;;30.00;99.90;;;;;;5016228;28;20583;-83
2022/06/23 05:22:56;;;;;;;15.20;13.40;;;;;;;;;;5015987;28;20492;-79
2022/06/23 05:25:28;;;;;;;16.13;14.03;;;30.80;99.90;;;;;;5020075;28;20452;-79
2022/06/23 05:27:54;;;;;;;18.33;14.63;;;;;;;;;;5015536;28;20474;-78
2022/06/23 05:30:33;;;;;;;35.73;18.00;;;31.40;99.90;;;;;;5017642;28;20895;-82
2022/06/23 05:33:14;;;;;;;35.67;18.07;;;29.70;99.90;;;;;;5021187;28;20994;-81
2022/06/23 05:35:47;;;;;;;101.60;24.37;;;28.70;99.90;;;;;;5022494;28;20669;-81
2022/06/23 05:38:19;;;;;;;156.37;25.67;;;29.00;99.90;;;;;;5021396;28;20829;-80
2022/06/23 05:40:54;;;;;;;164.33;24.20;;;29.00;99.90;;;;;;5020538;28;20470;-79
2022/06/23 05:43:21;;;;;;;149.87;25.87;;;;;;;;;;5024590;28;20514;-79
2022/06/23 05:45:52;;;;;;;38.80;18.07;;;30.00;99.90;;;;;;5024495;28;20465;-80
2022/06/23 05:48:28;;;;;;;106.10;20.50;;;29.60;99.90;;;;;;5042547;28;20495;-79
2022/06/23 05:51:01;;;;;;;37.53;18.20;;;29.80;99.90;;;;;;5021923;28;20930;-82
2022/06/23 05:54:07;;;;;;;45.13;18.00;;;29.90;99.90;;;;;;5022936;28;20439;-80
2022/06/23 05:56:44;;;;;;;48.37;17.37;;;29.10;99.90;;;;;;5021621;28;20472;-83
2022/06/23 05:59:21;;;;;;;35.27;17.90;;;28.30;99.90;;;;;;5023897;28;20474;-78
2022/06/23 06:01:57;;;;;;;25.23;15.73;;;28.20;99.90;;;;;;5028138;28;20520;-84
2022/06/23 06:04:30;;;;;;;38.07;15.83;;;28.10;99.90;;;;;;5011919;28;20437;-82
2022/06/23 06:06:56;;;;;;;29.80;15.37;;;;;;;;;;5022131;28;20821;-83
2022/06/23 06:09:35;;;;;;;40.17;16.10;;;27.40;99.90;;;;;;5026812;28;20451;-81
2022/06/23 06:12:05;;;;;;;37.40;16.57;;;26.40;99.90;;;;;;5025238;28;20441;-85
2022/06/23 06:14:35;;;;;;;72.43;17.30;;;25.60;99.90;;;;;;5028444;28;20442;-86
2022/06/23 06:17:02;;;;;;;57.63;16.40;;;25.60;99.90;;;;;;5029812;28;20471;-85
2022/06/23 06:19:31;;;;;;;87.63;19.20;;;25.90;99.90;;;;;;5031537;28;20475;-85
2022/06/23 06:22:01;;;;;;;77.93;17.13;;;25.50;99.90;;;;;;5031871;28;20435;-86
2022/06/23 06:24:33;;;;;;;55.73;16.97;;;25.00;99.90;;;;;;5030896;28;20915;-86
2022/06/23 06:27:01;;;;;;;180.47;24.80;;;24.70;99.90;;;;;;5024939;28;20453;-85
2022/06/23 06:29:32;;;;;;;25.40;16.40;;;25.10;99.90;;;;;;5032849;28;20669;-86
2022/06/23 06:32:14;;;;;;;73.27;17.73;;;25.10;99.90;;;;;;5026965;28;20448;-85
2022/06/23 06:35:02;;;;;;;50.90;19.13;;;24.80;99.90;;;;;;5034750;28;20428;-86
2022/06/23 06:37:32;;;;;;;65.97;19.23;;;24.90;99.90;;;;;;5031271;28;21080;-86
2022/06/23 06:40:00;;;;;;;77.63;19.60;;;25.00;99.90;;;;;;5047936;28;20863;-87
2022/06/23 06:42:29;;;;;;;46.80;20.33;;;25.30;99.90;;;;;;5032203;28;20433;-87
2022/06/23 06:44:58;;;;;;;45.43;19.60;;;25.60;99.90;;;;;;5039224;28;20443;-83
2022/06/23 06:47:34;;;;;;;26.50;20.87;;;25.80;99.90;;;;;;5029614;28;20461;-84
2022/06/23 06:50:05;;;;;;;25.73;18.30;;;26.10;99.90;;;;;;5023246;28;20453;-82
2022/06/23 06:52:31;;;;;;;48.20;19.97;;;;;;;;;;5019163;28;20445;-83
2022/06/23 06:55:02;;;;;;;44.83;21.73;;;26.40;99.90;;;;;;5010490;28;20466;-84
2022/06/23 06:57:36;;;;;;;29.53;21.10;;;25.90;99.90;;;;;;5018720;28;20456;-81
2022/06/23 07:00:06;;;;;;;24.03;20.07;;;26.30;99.90;;;;;;5023364;28;20843;-81
2022/06/23 07:02:42;;;;;;;24.90;19.33;;;26.30;99.90;;;;;;5025888;28;20493;-82
2022/06/23 07:05:08;;;;;;;23.00;17.93;;;;;;;;;;5030191;28;20427;-82
2022/06/23 07:07:40;;;;;;;22.80;17.03;;;27.80;99.90;;;;;;5026113;28;20521;-83
2022/06/23 07:10:13;;;;;;;25.40;15.67;;;30.50;99.90;;;;;;5026346;28;20558;-82
2022/06/23 07:12:39;;;;;;;21.93;15.03;;;;;;;;;;5015968;28;20955;-82
2022/06/23 07:15:22;;;;;;;15.80;14.00;;;33.00;99.90;;;;;;5024416;28;20499;-82
2022/06/23 07:17:53;;;;;;;18.80;14.20;;;35.70;99.90;;;;;;5025811;28;20481;-84
2022/06/23 07:20:28;;;;;;;15.23;13.63;;;36.40;99.90;;;;;;5026964;28;20460;-82
2022/06/23 07:23:03;;;;;;;15.90;13.57;;;36.20;99.90;;;;;;5025870;28;20446;-82
2022/06/23 07:25:35;;;;;;;18.70;13.43;;;35.20;99.90;;;;;;5026290;28;20926;-83
2022/06/23 07:28:16;;;;;;;16.07;12.57;;;36.10;99.90;;;;;;5025191;28;20578;-81
2022/06/23 07:30:50;;;;;;;16.63;12.73;;;34.60;99.90;;;;;;5021555;28;20493;-81
2022/06/23 07:33:16;;;;;;;13.50;12.00;;;;;;;;;;5022248;28;20485;-83
2022/06/23 07:35:48;;;;;;;8.83;7.83;;;39.60;94.10;;;;;;5019574;28;20487;-81
2022/06/23 07:38:40;;;;;;;10.20;6.10;;;42.10;78.40;;;;;;5025379;28;20193;-82
2022/06/23 07:41:12;;;;;;;13.67;8.23;;;43.00;65.50;;;;;;5024990;28;20803;-82
2022/06/23 07:43:38;;;;;;;15.67;9.57;;;;;;;;;;5024117;28;20594;-81
2022/06/23 07:46:04;;;;;;;11.80;8.70;;;;;;;;;;5024203;28;20675;-82
2022/06/23 07:48:35;;;;;;;11.47;9.60;;;43.40;60.10;;;;;;5022655;28;20432;-81
2022/06/23 07:51:06;;;;;;;14.50;11.30;;;43.80;56.70;;;;;;5012508;28;20276;-82
2022/06/23 07:53:36;;;;;;;14.23;11.90;;;41.00;58.90;;;;;;5014783;28;20861;-83
2022/06/23 07:56:04;;;;;;;14.83;11.63;;;40.10;59.50;;;;;;5030995;28;20976;-81
2022/06/23 07:58:32;;;;;;;20.30;11.60;;;40.50;58.90;;;;;;5019749;28;20791;-80
2022/06/23 08:01:26;;;;;;;15.87;11.13;;;39.70;58.50;;;;;;5041698;28;20543;-82
2022/06/23 08:04:09;;;;;;;15.47;12.27;;;40.70;59.50;;;;;;5023145;28;20783;-81
2022/06/23 08:06:36;;;;;;;14.23;11.80;;;;;;;;;;5023169;28;20975;-79
2022/06/23 08:09:07;;;;;;;12.70;11.63;;;41.90;57.00;;;;;;5023409;28;20450;-84
2022/06/23 08:14:28;;;;;;;12.83;11.77;;;41.50;55.90;;;;;;5024719;28;20498;-83
2022/06/23 08:16:54;;;;;;;12.20;10.90;;;;;;;;;;5017005;28;20827;-81
2022/06/23 08:19:53;;;;;;;14.40;12.63;;;40.70;56.40;;;;;;5023240;28;20468;-79
2022/06/23 08:22:25;;;;;;;12.43;11.43;;;42.40;55.20;;;;;;5025419;28;20898;-83
2022/06/23 08:24:55;;;;;;;13.13;11.90;;;43.40;52.20;;;;;;5025069;28;20429;-85
2022/06/23 08:27:24;;;;;;;14.30;13.03;;;43.20;51.00;;;;;;5027372;28;20460;-82
2022/06/23 08:29:55;;;;;;;14.63;13.50;;;43.10;51.50;;;;;;5028361;28;20432;-83
2022/06/23 08:32:21;;;;;;;14.70;13.37;;;;;;;;;;5029570;28;20447;-83
2022/06/23 08:35:00;;;;;;;15.33;14.07;;;43.80;49.70;;;;;;5029865;28;20796;-83
2022/06/23 08:37:25;;;;;;;15.63;14.30;;;;;;;;;;5042658;28;20967;-83
2022/06/23 08:39:51;;;;;;;15.87;14.60;;;;;;;;;;5024178;28;20467;-82
2022/06/23 08:42:25;;;;;;;16.80;15.30;;;42.10;49.00;;;;;;5028180;28;20181;-83
2022/06/23 08:44:56;;;;;;;15.03;13.80;;;41.80;49.30;;;;;;5026450;28;20535;-79
2022/06/23 08:48:23;;;;;;;22.03;15.70;;;41.30;50.80;;;;;;5024595;28;20804;-83
2022/06/23 08:51:13;;;;;;;15.40;14.10;;;38.00;55.70;;;;;;5007867;28;20433;-81
2022/06/23 08:54:19;;;;;;;16.03;14.30;;;38.20;58.10;;;;;;5026212;28;20447;-84
2022/06/23 08:57:03;;;;;;;15.07;13.60;;;40.10;53.10;;;;;;5007771;28;20467;-83
2022/06/23 08:59:39;;;;;;;13.17;11.90;;;41.00;50.90;;;;;;5024756;28;20475;-82
2022/06/23 09:02:14;;;;;;;12.93;11.93;;;40.60;51.20;;;;;;5029331;28;21140;-84
2022/06/23 09:04:55;;;;;;;12.67;11.60;;;39.70;52.20;;;;;;5013363;28;20443;-82
2022/06/23 09:07:51;;;;;;;15.50;12.40;;;40.80;51.40;;;;;;5028897;28;20566;-82
2022/06/23 09:10:49;;;;;;;13.97;11.50;;;41.00;49.90;;;;;;5023192;28;20447;-84
2022/06/23 09:13:49;;;;;;;15.53;14.23;;;40.60;49.80;;;;;;5028900;28;20582;-81
2022/06/23 09:16:45;;;;;;;16.70;15.30;;;40.90;49.60;;;;;;5026822;28;20891;-82
2022/06/23 09:19:44;;;;;;;16.63;15.10;;;38.10;53.60;;;;;;5022742;28;20556;-82
2022/06/23 09:22:37;;;;;;;16.73;15.33;;;36.70;57.30;;;;;;5025128;28;20919;-79
2022/06/23 09:25:12;;;;;;;16.57;13.10;;;38.40;53.80;;;;;;5021866;28;20495;-80
2022/06/23 09:27:54;;;;;;;14.40;13.07;;;39.20;51.30;;;;;;5014725;28;20456;-82
2022/06/23 09:30:47;;;;;;;15.50;14.33;;;38.80;51.60;;;;;;5012013;28;20440;-82
2022/06/23 09:33:13;;;;;;;14.63;13.50;;;;;;;;;;5019037;28;20435;-79
2022/06/23 09:38:14;;;;;;;17.93;16.27;;;37.50;54.30;;;;;;5045105;28;20485;-82
2022/06/23 09:41:14;;;;;;;17.50;16.23;;;37.60;58.20;;;;;;5049277;28;20457;-82
2022/06/23 09:43:56;;;;;;;18.33;16.47;;;37.80;78.90;;;;;;5052097;28;20398;-85
2022/06/23 09:46:49;;;;;;;17.73;15.90;;;37.60;60.40;;;;;;5050493;28;20438;-82
2022/06/23 09:49:52;;;;;;;16.43;14.97;;;39.00;52.80;;;;;;5050841;28;20422;-83
2022/06/23 09:52:18;;;;;;;15.40;14.20;;;;;;;;;;5052469;28;20427;-83
2022/06/23 09:55:08;;;;;;;16.53;15.10;;;41.60;58.60;;;;;;5052595;28;20414;-81
2022/06/23 09:57:55;;;;;;;17.67;16.10;;;40.40;49.20;;;;;;5053958;28;20259;-81
2022/06/23 10:00:38;;;;;;;17.70;16.20;;;39.70;48.80;;;;;;5052578;28;21065;-84
2022/06/23 10:03:20;;;;;;;17.13;15.60;;;38.80;50.90;;;;;;5051651;28;20948;-81
2022/06/23 10:06:15;;;;;;;16.63;15.10;;;38.10;52.20;;;;;;5052792;28;20403;-81
2022/06/23 10:09:08;;;;;;;16.23;14.80;;;38.80;51.80;;;;;;5049449;28;20423;-80
2022/06/23 10:11:58;;;;;;;16.73;15.37;;;38.00;52.90;;;;;;5054393;28;20411;-80
2022/06/23 10:14:41;;;;;;;17.37;15.80;;;36.70;76.90;;;;;;5055363;28;20391;-81
2022/06/23 10:17:19;;;;;;;17.73;16.23;;;36.70;55.00;;;;;;5057701;28;20426;-80
2022/06/23 10:20:06;;;;;;;19.97;18.30;;;36.50;69.90;;;;;;5056850;28;20529;-81
2022/06/23 10:22:55;;;;;;;18.13;16.53;;;37.40;74.40;;;;;;5058415;28;20884;-82
2022/06/23 10:25:53;;;;;;;20.23;18.77;;;37.40;53.40;;;;;;5046126;28;20412;-80
2022/06/23 10:28:43;;;;;;;19.27;17.70;;;37.50;54.00;;;;;;5054244;28;20419;-82
2022/06/23 10:31:09;;;;;;;20.87;18.70;;;;;;;;;;5055513;28;20774;-81
2022/06/23 10:33:52;;;;;;;18.97;17.27;;;37.70;53.60;;;;;;5056063;28;20706;-80
2022/06/23 10:36:48;;;;;;;19.40;17.80;;;37.40;58.80;;;;;;5053603;28;20455;-82
2022/06/23 10:39:35;;;;;;;19.13;17.13;;;35.90;53.90;;;;;;5054344;28;20451;-81
2022/06/23 10:42:35;;;;;;;19.43;18.23;;;33.90;56.10;;;;;;5052788;28;20431;-81
2022/06/23 10:45:42;;;;;;;16.53;15.23;;;32.10;60.80;;;;;;5044773;28;20568;-82
2022/06/23 10:48:38;;;;;;;13.33;10.50;;;30.90;66.90;;;;;;5055334;28;21049;-80
2022/06/23 10:51:27;;;;;;;9.93;7.67;;;30.90;70.40;;;;;;5052304;28;20427;-81
2022/06/23 10:54:19;;;;;;;11.77;6.03;;;30.20;74.80;;;;;;5055236;28;20418;-81
2022/06/23 10:56:54;;;;;;;15.77;6.40;;;30.20;77.30;;;;;;5054153;28;20444;-82
2022/06/23 10:59:31;;;;;;;9.30;6.50;;;30.30;87.00;;;;;;5053083;28;20460;-81
2022/06/23 11:01:57;;;;;;;11.30;6.20;;;;;;;;;;5054376;28;20992;-81
2022/06/23 11:04:43;;;;;;;10.93;6.90;;;30.20;76.00;;;;;;5056568;28;20444;-83
2022/06/23 11:07:36;;;;;;;13.57;6.60;;;30.20;78.60;;;;;;5055917;28;20445;-82
2022/06/23 11:10:15;;;;;;;9.50;4.87;;;29.80;82.70;;;;;;5054906;28;20790;-82
2022/06/23 11:13:12;;;;;;;14.23;7.67;;;30.10;79.20;;;;;;5054001;28;20438;-81
2022/06/23 11:16:17;;;;;;;12.80;6.93;;;30.00;83.00;;;;;;5054812;28;20764;-82
2022/06/23 11:18:49;;;;;;;7.50;5.70;;;29.70;83.60;;;;;;5052542;28;20837;-84
2022/06/23 11:21:32;;;;;;;8.00;6.43;;;30.00;79.20;;;;;;5046629;28;20463;-80
2022/06/23 11:24:08;;;;;;;10.63;7.07;;;30.10;78.70;;;;;;5040418;28;20570;-83
2022/06/23 11:26:55;;;;;;;13.40;6.13;;;29.90;77.80;;;;;;5051804;28;21013;-82
2022/06/23 11:29:54;;;;;;;23.30;6.87;;;30.10;79.60;;;;;;5041275;28;20800;-81
2022/06/23 11:32:49;;;;;;;11.27;7.00;;;30.20;80.80;;;;;;5048115;28;20531;-81
2022/06/23 11:35:29;;;;;;;18.80;6.40;;;30.20;76.20;;;;;;5033633;28;20493;-81
2022/06/23 11:38:10;;;;;;;7.10;6.10;;;29.70;82.60;;;;;;5034545;28;20821;-81
2022/06/23 11:41:13;;;;;;;8.50;7.07;;;29.70;84.50;;;;;;5041466;28;20463;-81
2022/06/23 11:43:53;;;;;;;9.50;5.63;;;29.90;86.00;;;;;;5042948;28;20425;-86
2022/06/23 11:46:19;;;;;;;9.90;5.20;;;;;;;;;;5037141;28;20497;-83
2022/06/23 11:48:45;;;;;;;11.57;6.47;;;;;;;;;;5038542;28;20436;-88
2022/06/23 11:51:35;;;;;;;10.80;4.70;;;29.90;80.40;;;;;;5033005;28;20832;-83
2022/06/23 11:54:31;;;;;;;9.83;6.23;;;29.60;82.60;;;;;;5044179;28;20964;-81
2022/06/23 11:57:18;;;;;;;7.57;5.63;;;29.90;79.80;;;;;;5033187;28;20459;-84
2022/06/23 12:00:05;;;;;;;12.80;5.70;;;30.20;79.20;;;;;;5036277;28;20469;-83
2022/06/23 12:03:06;;;;;;;11.27;5.70;;;30.20;82.50;;;;;;5044437;28;20447;-83
2022/06/23 12:05:40;;;;;;;10.80;5.27;;;30.30;80.20;;;;;;5030163;28;20468;-82
2022/06/23 12:08:27;;;;;;;12.03;5.50;;;30.40;77.10;;;;;;5036423;28;20962;-82
2022/06/23 12:10:53;;;;;;;8.70;6.43;;;;;;;;;;5035525;28;20444;-84
2022/06/23 12:13:19;;;;;;;14.20;6.80;;;;;;;;;;5031269;28;20436;-85
2022/06/23 12:15:49;;;;;;;10.20;5.50;;;30.30;79.20;;;;;;5035861;28;20443;-84
2022/06/23 12:18:48;;;;;;;12.03;6.63;;;30.70;78.70;;;;;;5033804;28;20444;-83
2022/06/23 12:21:34;;;;;;;8.53;6.40;;;31.00;74.80;;;;;;5034426;28;20486;-88
2022/06/23 12:24:19;;;;;;;13.70;6.70;;;30.80;75.20;;;;;;5032126;28;20475;-85
2022/06/23 12:27:06;;;;;;;10.00;7.80;;;30.70;77.90;;;;;;5034116;28;20525;-84
2022/06/23 12:29:51;;;;;;;8.97;6.90;;;30.70;77.20;;;;;;5038262;28;21041;-85
2022/06/23 12:32:35;;;;;;;9.67;7.90;;;30.20;77.10;;;;;;5035169;28;20821;-82
2022/06/23 12:35:18;;;;;;;12.40;7.70;;;30.30;75.70;;;;;;5037840;28;20441;-84
2022/06/23 12:37:52;;;;;;;12.77;6.70;;;30.50;76.10;;;;;;5044121;28;20496;-82
2022/06/23 12:40:38;;;;;;;10.27;8.33;;;30.50;76.70;;;;;;5036724;28;20483;-84
2022/06/23 12:43:43;;;;;;;12.00;6.37;;;30.20;82.80;;;;;;5030693;28;20442;-84
2022/06/23 12:46:34;;;;;;;12.87;7.10;;;30.60;76.10;;;;;;5039052;28;20464;-84
2022/06/23 12:49:24;;;;;;;10.40;6.13;;;30.80;75.40;;;;;;5041188;28;20443;-86
2022/06/23 12:52:21;;;;;;;14.13;8.73;;;30.50;80.20;;;;;;5030058;28;21540;-86
2022/06/23 12:55:17;;;;;;;14.27;11.10;;;31.00;92.00;;;;;;5032524;28;20855;-85
2022/06/23 12:58:04;;;;;;;13.00;7.50;;;31.00;75.80;;;;;;5033729;28;20453;-85
2022/06/23 13:01:00;;;;;;;9.00;7.60;;;31.10;75.40;;;;;;5035698;28;20464;-80
2022/06/23 13:03:29;;;;;;;9.10;7.20;;;30.90;73.20;;;;;;5037696;28;20437;-85
2022/06/23 13:06:12;;;;;;;13.50;8.40;;;30.90;74.40;;;;;;5042217;28;20481;-84
2022/06/23 13:08:51;;;;;;;14.50;13.40;;;31.00;73.20;;;;;;5037958;28;20595;-85
2022/06/23 13:11:40;;;;;;;17.80;16.17;;;30.90;72.80;;;;;;5038323;28;20432;-86
2022/06/23 13:14:16;;;;;;;15.60;14.20;;;30.60;72.50;;;;;;5020197;28;20448;-82
2022/06/23 13:16:53;;;;;;;23.33;15.93;;;30.50;72.30;;;;;;5035208;28;20980;-83
2022/06/23 13:19:27;;;;;;;16.03;14.80;;;30.60;73.80;;;;;;5036975;28;20459;-85
2022/06/23 13:22:04;;;;;;;17.40;15.70;;;30.50;74.70;;;;;;5033611;28;20435;-83
2022/06/23 13:24:34;;;;;;;17.27;14.13;;;30.40;73.70;;;;;;5031516;28;20438;-86
2022/06/23 13:27:00;;;;;;;10.40;9.40;;;;;;;;;;5031573;28;20978;-84
2022/06/23 13:29:59;;;;;;;15.17;10.53;;;30.70;83.20;;;;;;5031627;28;20427;-84
2022/06/23 13:32:25;;;;;;;15.33;11.77;;;;;;;;;;5034630;28;20762;-86
2022/06/23 13:35:09;;;;;;;14.57;10.27;;;30.60;76.10;;;;;;5030948;28;20441;-82
2022/06/23 13:37:47;;;;;;;12.07;10.97;;;31.00;74.30;;;;;;5032373;28;20476;-81
2022/06/23 13:40:37;;;;;;;9.60;8.63;;;30.70;71.60;;;;;;5035326;28;20471;-85
2022/06/23 13:43:18;;;;;;;10.50;7.57;;;30.90;73.30;;;;;;5030778;28;20448;-84
2022/06/23 13:46:05;;;;;;;15.03;7.10;;;31.00;79.60;;;;;;5039399;28;20882;-86
2022/06/23 13:48:39;;;;;;;12.23;8.90;;;31.30;69.00;;;;;;5039996;28;20925;-85
2022/06/23 13:51:14;;;;;;;12.80;9.17;;;31.30;70.80;;;;;;5039811;28;20519;-83
2022/06/23 13:53:46;;;;;;;17.70;11.67;;;31.40;68.10;;;;;;5040517;28;20957;-85